Barcroft Research Lab Weather observations

Data are for 10 minute period ending at time listed.
 Day   Time   Solar   Ave.   Ave.  Ave.  Vector  Std.   Max.    Baro.    
  of    of     Rad.   Air    Rel.  Wind   Wind   Dev.   Wind   Press.    
Year   Day            Temp.  Hum.  Speed  Dir.   Dir.   Gust            
2015   (PST)  Kw/m2    F      %     mph   deg.   deg.    mph     mb.    
------------------------------------------------------------------------
 181    9:10     236   52.9    61    4.7   226    -99     9.1   653.90  
 181    9:20     648   54.9    57    1.9   234    -99     7.8   653.90  
 181    9:30     288   54.5    58    3.9   231    -99     9.1   653.90  
 181    9:40     222   53.4    61    4.8   248    -99     9.3   653.90  
 181    9:50     344   54.0    62    4.0   155    -99     9.8   653.90  
 181   10:00    1027   56.0    58    3.9   157    -99    11.5   653.90  
 181   10:10     583   58.7    50    9.3   129    -99    17.2   653.70  
 181   10:20     241   56.6    53    9.1   111    -99    14.4   653.70  
 181   10:30     294   56.1    53    8.7   121    -99    15.3   653.70  
 181   10:40     260   56.5    53    6.8   147    -99    13.3   653.70  
 181   10:50     224   55.7    54    7.9   130    -99    13.6   653.70  
 181   11:00     209   55.5    55    6.9   135    -99    11.7   653.70  
 181   11:10     358   54.0    64    5.6   236    -99    11.5   653.50  
 181   11:20    1124   54.3    59    4.8   244    -99    10.7   653.50  
 181   11:30     815   57.2    54    5.1   229    -99    11.4   653.50  
 181   11:40     644   56.3    55    4.4   203    -99     9.7   653.50  
 181   11:50     820   58.5    50    4.8   196    -99    11.8   653.50  
 181   12:00     679   57.2    54    6.3   239    -99    13.9   653.50  
 181   12:10     592   56.7    56    7.0   228    -99    12.3   653.20  
 181   12:20     172   55.3    60    8.2   251    -99    14.1   653.20  
 181   12:30      71   54.0    62    8.2   249    -99    13.7   653.20  
 181   12:40      55   52.0    72    4.7   226    -99    11.2   653.20  
 181   12:50      88   49.2    77    4.6   247    -99    16.1   653.20  
 181   13:00     230   50.6    75    8.2   269    -99    13.7   653.20  
 181   13:10     623   52.8    69   10.1   253    -99    17.3   653.10  
 181   13:20     832   53.8    68   11.0   249    -99    21.5   653.10  
 181   13:30     564   53.2    67   10.7   267    -99    16.3   653.10  
 181   13:40     340   53.3    68    9.1   288    -99    13.2   653.10  
 181   13:50     557   54.5    66    8.7   303    -99    13.6   653.10  
 181   14:00     163   53.2    68   10.6   301    -99    16.2   653.10  
 181   14:10     120   52.2    68   10.4   287    -99    16.0   653.00  
 181   14:20     111   51.6    69   10.7   298    -99    17.8   653.00  
 181   14:30     150   51.4    70   10.3   299    -99    15.7   653.00  
 181   14:40     156   51.5    69    9.7   307    -99    12.6   653.00  
 181   14:50     172   51.6    68    7.6   310    -99    12.3   653.00  
 181   15:00     310   52.8    65    4.1   327    -99     8.6   653.00  
 181   15:10     368   55.0    58    3.7   135    -99     8.9   652.60  
 181   15:20     349   56.6    58    5.3   133    -99    11.1   652.60  
 181   15:30     291   53.8    66    7.7    58    -99    13.9   652.60  
 181   15:40     261   53.3    66    2.4    68    -99     4.6   652.60  
 181   15:50     234   55.1    61    2.1    98    -99     4.5   652.60  
 181   16:00      91   53.9    63    1.6    43    -99     3.4   652.60  
 181   16:10      65   52.9    68    1.1    68    -99     2.4   652.90  
 181   16:20      65   52.6    67    1.5   184    -99     3.7   652.90  
 181   16:30      47   52.7    68    1.9   179    -99     3.7   652.90  
 181   16:40      30   52.4    67    0.8   188    -99     2.3   652.90  
 181   16:50      19   52.0    68    0.7    68    -99     2.9   652.90  
 181   17:00       9   51.5    72    3.0    58    -99     5.0   652.90  
 181   17:10       3   51.3    71    3.8    52    -99     6.1   653.00  
 181   17:20       7   50.8    73    4.7    49    -99    10.4   653.00  
 181   17:30       3   50.1    77    3.3    51    -99     5.0   653.00  
 181   17:40       0   49.9    78    5.3    90    -99    16.4   653.00  
 181   17:50       0   48.3    74    6.5   155    -99    24.3   653.00  
 181   18:00       0   47.2    76    4.3    91    -99     7.3   653.00  
 181   18:10       0   47.8    77    3.7    94    -99     6.1   653.40  
 181   18:20       0   48.0    79    3.7   109    -99     6.2   653.40  
 181   18:30       0   48.0    78    5.0   109    -99     8.2   653.40  
 181   18:40       0   47.6    72    4.4   290    -99    16.5   653.40  
 181   18:50       0   48.5    67    7.0   280    -99    11.4   653.40  
 181   19:00       0   49.6    60    6.7   264    -99    10.0   653.40  
 181   19:10       0   49.5    60    1.3   129    -99     5.2   653.40  
 181   19:20       0   49.5    61    3.2    78    -99     5.2   653.40  
 181   19:30       0   48.1    70    4.4    27    -99    10.3   653.40  
 181   19:40       0   47.4    73    3.6    19    -99     6.9   653.40  
 181   19:50       0   47.7    70    4.5    23    -99     8.7   653.40  
 181   20:00       0   47.5    71    2.8    20    -99     4.7   653.40  
 181   20:10       0   47.5    71    3.2    23    -99     5.4   653.40  
 181   20:20       0   47.2    72    2.9     9    -99     4.6   653.40  
 181   20:30       0   47.1    72    3.3   351    -99     5.3   653.40  
 181   20:40       0   47.6    68    3.5    10    -99     6.0   653.40  
 181   20:50       0   47.8    68    3.4    14    -99     5.7   653.40  
 181   21:00       0   47.2    71    3.6     4    -99     5.2   653.40  
 181   21:10       0   46.8    73    3.3   352    -99     5.6   653.30  
 181   21:20       0   47.9    68    3.0     8    -99     5.0   653.30  
 181   21:30       0   48.3    67    2.8     5    -99     4.0   653.30  
 181   21:40       0   48.1    68    2.5     4    -99     3.5   653.30  
 181   21:50       0   47.5    71    2.5   346    -99     3.7   653.30  
 181   22:00       0   46.6    73    3.4   336    -99     6.1   653.30  
 181   22:10       0   46.5    73    3.7   332    -99     5.6   653.10  
 181   22:20       0   47.8    68    4.5   354    -99     7.2   653.10  
 181   22:30       0   48.5    67    4.0    11    -99     6.9   653.10  
 181   22:40       0   48.0    69    3.2   351    -99     6.4   653.10  
 181   22:50       0   48.1    68    3.3   356    -99     6.4   653.10  
 181   23:00       0   48.3    67    4.4   345    -99     7.0   653.10  
 181   23:10       0   48.1    68    4.3   348    -99     7.7   652.90  
 181   23:20       0   48.1    68    3.5   346    -99     6.7   652.90  
 181   23:30       0   47.8    68    1.3   343    -99     3.7   652.90  
 181   23:40       0   47.4    69    3.6   345    -99     6.8   652.90  
 181   23:50       0   47.7    69    4.2   345    -99     6.4   652.90  
 182    0:00       0   47.9    68    5.5   345    -99     8.8   652.90  
 182    0:10       0   48.0    67    5.0   347    -99     8.1   652.60  
 182    0:20       0   48.1    66    3.2   353    -99     5.7   652.60  
 182    0:30       0   47.3    69    2.9   341    -99     4.9   652.60  
 182    0:40       0   46.5    71    3.6   349    -99     5.5   652.60  
 182    0:50       0   47.2    69    2.4   351    -99     4.6   652.60  
 182    1:00       0   46.4    72    2.5   339    -99     4.8   652.60  
 182    1:10       0   46.9    70    2.5   352    -99     4.0   652.50  
 182    1:20       0   47.0    69    2.5   350    -99     3.8   652.50  
 182    1:30       0   46.8    70    3.1   353    -99     5.0   652.50  
 182    1:40       0   47.0    69    3.8   360    -99     5.3   652.50  
 182    1:50       0   47.2    69    4.6     9    -99     7.1   652.50  
 182    2:00       0   47.0    69    3.6   357    -99     5.3   652.50  
 182    2:10       0   47.2    69    3.4   354    -99     5.8   652.50  
 182    2:20       0   47.3    68    3.1   360    -99     5.6   652.50  
 182    2:30       2   47.4    66    4.2   352    -99     6.3   652.50  
 182    2:40       4   47.8    65    4.0   356    -99     6.3   652.50  
 182    2:50      14   47.8    65    4.2   359    -99     6.6   652.50  
 182    3:00      20   48.1    66    3.8     3    -99     5.9   652.50  
 182    3:10      31   48.1    66    3.8     7    -99     6.4   652.80  
 182    3:20      50   48.4    65    4.4    17    -99     6.8   652.80  
 182    3:30      66   48.8    64    4.8    41    -99     9.1   652.80  
 182    3:40      84   48.4    68    5.8    60    -99    11.5   652.80  
 182    3:50      85   47.1    72    4.1    56    -99     7.4   652.80  
 182    4:00      92   47.8    69    5.0    64    -99     8.3   652.80  
 182    4:10     105   48.1    70    3.8    52    -99     7.0   653.20  
 182    4:20     143   48.3    70    4.1    42    -99     7.3   653.20  
 182    4:30     207   48.1    73    5.4   264    -99    14.2   653.20  
 182    4:40     332   48.0    72    2.9   285    -99     8.7   653.20  
 182    4:50     402   51.1    64    1.8    62    -99     3.9   653.20  
 182    5:00     338   51.9    61    1.6    28    -99     4.7   653.20  
 182    5:10     261   51.6    65    6.3   322    -99    10.5   653.20  
 182    5:20     291   50.6    67    6.5   304    -99     9.2   653.20  
 182    5:30     291   50.2    70    6.6   309    -99     9.3   653.20  
 182    5:40     410   51.3    64    1.6   322    -99     4.5   653.20  
 182    5:50     498   53.3    57    1.9    84    -99     3.9   653.20  
 182    6:00     468   53.6    58    3.9    90    -99     7.1   653.20  
 182    6:10     393   52.9    62    6.1    65    -99    10.2   653.20  
 182    6:20     243   52.3    65    6.0    91    -99     9.4   653.20  
 182    6:30     229   52.4    65    5.1   111    -99     8.7   653.20  
 182    6:40     239   52.5    62    4.4   106    -99     6.8   653.20  
 182    6:50     257   52.3    62    5.6   104    -99     8.1   653.20  
 182    7:00     218   52.3    62    5.3   113    -99     8.9   653.20  
 182    7:10     332   52.6    61    3.6   110    -99     5.5   653.20  
 182    7:20     560   53.2    61    6.1    97    -99     9.7   653.20  
 182    7:30     501   53.9    60    7.8   109    -99    11.5   653.20  
 182    7:40     549   54.2    60    7.9   116    -99    12.6   653.20  
 182    7:50     481   54.0    65    7.5    82    -99    10.7   653.20  
 182    8:00     785   54.3    66    6.9    82    -99    10.8   653.20  
 182    8:10     538   54.2    66    7.9    72    -99    12.3   653.30  
 182    8:20     424   53.5    67    7.6    75    -99    11.0   653.30  
 182    8:30     574   53.5    67    6.8    69    -99    13.2   653.30  
 182    8:40     479   54.0    64    6.8    70    -99    13.6   653.30  
 182    8:50     759   54.3    65    7.8    65    -99    11.8   653.30  
 182    9:00     944   54.6    66    7.8    64    -99    12.4   653.30  

Return to Barcroft Research Lab graphs page.


Western Regional Climate Center,wrcc@dri.edu